createdAt,value
2023-02-06T00:01:32.557Z,67.00
2023-02-06T00:04:00.632Z,17.30
2023-02-06T00:06:28.716Z,1.00
2023-02-06T00:08:56.818Z,1.70
2023-02-06T00:11:25.120Z,1.00
2023-02-06T00:13:55.059Z,1.00
2023-02-06T00:16:25.064Z,1.00
2023-02-06T00:18:54.404Z,1.00
2023-02-06T00:21:24.592Z,1.00
2023-02-06T00:23:53.804Z,1.00
2023-02-06T00:26:22.255Z,1.00
2023-02-06T00:28:50.369Z,1.00
2023-02-06T00:31:20.649Z,10.00
2023-02-06T00:33:48.794Z,21.80
2023-02-06T00:36:17.005Z,78.80
2023-02-06T00:38:45.566Z,99.90
2023-02-06T00:41:15.204Z,99.90
2023-02-06T00:43:43.547Z,99.90
2023-02-06T00:46:11.921Z,81.40
2023-02-06T00:48:42.078Z,36.50
2023-02-06T00:51:10.204Z,25.60
2023-02-06T00:53:39.083Z,23.50
2023-02-06T00:56:07.672Z,21.20
2023-02-06T00:58:35.825Z,20.70
2023-02-06T01:01:04.834Z,77.30
2023-02-06T01:03:33.047Z,92.20
2023-02-06T01:06:02.471Z,99.90
2023-02-06T01:08:30.630Z,99.90
2023-02-06T01:11:00.926Z,99.90
2023-02-06T01:13:29.231Z,99.90
2023-02-06T01:15:57.328Z,32.10
2023-02-06T01:18:25.523Z,36.50
2023-02-06T01:20:53.593Z,10.40
2023-02-06T01:23:23.320Z,19.00
2023-02-06T01:25:51.327Z,7.30
2023-02-06T01:28:19.496Z,7.10
2023-02-06T01:30:48.174Z,1.00
2023-02-06T01:33:16.485Z,1.00
2023-02-06T01:35:45.090Z,1.00
2023-02-06T01:38:13.558Z,1.00
2023-02-06T01:40:42.992Z,1.00
2023-02-06T01:43:18.742Z,1.00
2023-02-06T01:45:48.341Z,1.00
2023-02-06T01:48:20.527Z,1.00
2023-02-06T01:50:52.305Z,1.00
2023-02-06T01:53:21.935Z,1.00
2023-02-06T01:55:53.890Z,1.00
2023-02-06T01:58:29.073Z,1.00
2023-02-06T02:01:00.260Z,1.00
2023-02-06T02:03:29.756Z,1.00
2023-02-06T02:06:03.328Z,1.00
2023-02-06T02:08:38.112Z,1.00
2023-02-06T02:11:18.197Z,1.00
2023-02-06T02:13:46.946Z,1.00
2023-02-06T02:16:22.429Z,1.00
2023-02-06T02:19:10.986Z,1.00
2023-02-06T02:21:59.693Z,1.00
2023-02-06T02:24:44.364Z,1.00
2023-02-06T02:27:35.220Z,1.00
2023-02-06T02:30:40.212Z,1.00
2023-02-06T02:33:36.864Z,1.00
2023-02-06T02:36:13.483Z,1.00
2023-02-06T02:38:52.878Z,1.00
2023-02-06T02:41:27.002Z,1.00
2023-02-06T02:43:59.384Z,1.00
2023-02-06T02:46:31.529Z,1.00
2023-02-06T02:49:05.306Z,1.00
2023-02-06T02:51:36.826Z,1.00
2023-02-06T02:54:05.465Z,1.00
2023-02-06T02:56:34.471Z,1.00
2023-02-06T02:59:08.593Z,1.00
2023-02-06T03:01:41.995Z,1.00
2023-02-06T03:04:16.582Z,1.00
2023-02-06T03:06:59.395Z,1.00
2023-02-06T03:09:40.324Z,1.00
2023-02-06T03:12:14.266Z,1.00
2023-02-06T03:14:50.818Z,1.00
2023-02-06T03:17:24.666Z,1.00
2023-02-06T03:19:57.810Z,1.00
2023-02-06T03:22:29.317Z,1.00
2023-02-06T03:24:58.964Z,1.00
2023-02-06T03:27:29.379Z,1.00
2023-02-06T03:29:58.762Z,1.00
2023-02-06T03:32:29.701Z,1.00
2023-02-06T03:35:02.454Z,1.00
2023-02-06T03:37:32.593Z,1.00
2023-02-06T03:40:02.505Z,1.00
2023-02-06T03:42:32.452Z,1.00
2023-02-06T03:45:05.421Z,1.00
2023-02-06T03:47:34.808Z,1.00
2023-02-06T03:50:03.261Z,1.00
2023-02-06T03:52:39.062Z,1.00
2023-02-06T03:55:11.309Z,1.00
2023-02-06T03:57:40.353Z,1.00
2023-02-06T04:00:09.603Z,1.00
2023-02-06T04:02:41.073Z,1.00
2023-02-06T04:05:09.680Z,1.00
2023-02-06T04:07:39.250Z,1.00
2023-02-06T04:10:08.255Z,1.00
2023-02-06T04:12:37.022Z,1.00
2023-02-06T04:15:05.463Z,1.00
2023-02-06T04:17:46.706Z,1.00
2023-02-06T04:20:22.125Z,1.00
2023-02-06T04:22:51.603Z,1.00
2023-02-06T04:25:19.805Z,1.00
2023-02-06T04:27:47.951Z,1.00
2023-02-06T04:30:17.818Z,1.00
2023-02-06T04:32:46.144Z,1.00
2023-02-06T04:35:14.274Z,1.00
2023-02-06T04:37:42.422Z,1.00
2023-02-06T04:40:13.461Z,1.00
2023-02-06T04:42:41.480Z,1.00
2023-02-06T04:45:10.456Z,1.00
2023-02-06T04:47:38.457Z,1.00
2023-02-06T04:50:07.458Z,1.00
2023-02-06T04:52:35.544Z,1.00
2023-02-06T04:55:03.602Z,1.00
2023-02-06T04:57:33.007Z,1.00
2023-02-06T05:00:01.056Z,1.00
2023-02-06T05:02:29.158Z,1.00
2023-02-06T05:04:57.266Z,1.00
2023-02-06T05:07:25.283Z,1.00
2023-02-06T05:09:53.352Z,1.00
2023-02-06T05:12:21.510Z,99.90
2023-02-06T05:14:50.956Z,37.70
2023-02-06T05:17:19.036Z,1.00
2023-02-06T05:19:47.125Z,1.00
2023-02-06T05:22:15.252Z,1.00
2023-02-06T05:24:43.371Z,1.00
2023-02-06T05:27:11.430Z,1.00
2023-02-06T05:29:39.532Z,66.20
2023-02-06T05:32:08.911Z,1.00
2023-02-06T05:34:36.956Z,22.60
2023-02-06T05:37:05.117Z,33.10
2023-02-06T05:39:33.345Z,99.90
2023-02-06T05:42:01.474Z,99.90
2023-02-06T05:44:29.492Z,99.90
2023-02-06T05:47:00.155Z,99.90
2023-02-06T05:49:29.734Z,99.90
2023-02-06T05:51:57.770Z,99.90
2023-02-06T05:54:25.915Z,99.90
2023-02-06T05:56:54.036Z,99.90
2023-02-06T05:59:22.196Z,99.90
2023-02-06T06:01:50.358Z,99.90
2023-02-06T06:04:18.523Z,99.90
2023-02-06T06:06:48.038Z,99.90
2023-02-06T06:09:16.138Z,99.90
2023-02-06T06:11:44.270Z,99.90
2023-02-06T06:14:13.247Z,1.00
2023-02-06T06:16:42.568Z,99.90
2023-02-06T06:19:10.945Z,99.90
2023-02-06T06:21:39.158Z,99.90
2023-02-06T06:24:08.913Z,99.90
2023-02-06T06:26:37.022Z,99.90
2023-02-06T06:29:05.198Z,99.90
2023-02-06T06:31:33.393Z,1.00
2023-02-06T06:34:01.496Z,1.00
2023-02-06T06:36:29.763Z,99.90
2023-02-06T06:38:57.816Z,1.00
2023-02-06T06:41:27.304Z,1.00
2023-02-06T06:43:57.254Z,1.00
2023-02-06T06:46:25.574Z,56.40
2023-02-06T06:48:54.053Z,1.00
2023-02-06T06:51:22.329Z,1.00
2023-02-06T06:53:50.444Z,1.00
2023-02-06T06:56:18.472Z,1.00
2023-02-06T06:58:47.958Z,1.00
2023-02-06T07:01:16.149Z,99.90
2023-02-06T07:03:45.658Z,99.90
2023-02-06T07:06:13.951Z,99.90
2023-02-06T07:08:46.482Z,99.90
2023-02-06T07:11:15.974Z,99.90
2023-02-06T07:13:44.620Z,99.90
2023-02-06T07:16:14.335Z,99.90
2023-02-06T07:18:43.056Z,99.90
2023-02-06T07:21:11.529Z,99.90
2023-02-06T07:23:39.855Z,99.90
2023-02-06T07:26:07.947Z,99.90
2023-02-06T07:28:36.141Z,99.90
2023-02-06T07:31:05.199Z,99.90
2023-02-06T07:33:35.738Z,99.90
2023-02-06T07:36:04.372Z,99.90
2023-02-06T07:38:32.784Z,99.90
2023-02-06T07:41:02.906Z,99.90
2023-02-06T07:43:31.320Z,99.90
2023-02-06T07:46:01.306Z,99.90
2023-02-06T07:48:29.667Z,1.00
2023-02-06T07:51:04.659Z,1.00
2023-02-06T07:53:32.809Z,1.00
2023-02-06T07:56:00.971Z,99.90
2023-02-06T07:58:29.064Z,1.00
2023-02-06T08:00:59.744Z,1.00
2023-02-06T08:03:27.826Z,1.00
2023-02-06T08:05:56.318Z,1.00
2023-02-06T08:08:25.898Z,1.00
2023-02-06T08:10:53.979Z,99.90
2023-02-06T08:13:22.021Z,99.90
2023-02-06T08:15:50.190Z,99.90
2023-02-06T08:18:18.407Z,99.90
2023-02-06T08:20:46.869Z,1.00
2023-02-06T08:23:17.006Z,1.00
2023-02-06T08:25:47.024Z,25.20
2023-02-06T08:28:17.101Z,1.00
2023-02-06T08:30:45.283Z,1.00
2023-02-06T08:33:13.525Z,1.00
2023-02-06T08:35:41.567Z,1.00
2023-02-06T08:38:09.765Z,99.90
2023-02-06T08:40:38.203Z,1.00
2023-02-06T08:43:07.613Z,1.00
2023-02-06T08:45:35.844Z,1.00
2023-02-06T08:48:04.208Z,1.00
2023-02-06T08:50:32.243Z,1.00
2023-02-06T08:53:00.312Z,1.00
2023-02-06T08:55:28.362Z,1.00
2023-02-06T08:57:57.072Z,1.00
2023-02-06T09:00:26.611Z,1.00
2023-02-06T09:02:58.403Z,99.90
2023-02-06T09:05:26.570Z,1.00
2023-02-06T09:07:55.166Z,1.00
2023-02-06T09:10:27.672Z,1.00
2023-02-06T09:12:57.009Z,1.00
2023-02-06T09:15:26.550Z,1.00
2023-02-06T09:17:55.283Z,1.00
2023-02-06T09:20:26.534Z,1.00
2023-02-06T09:22:55.193Z,1.00
2023-02-06T09:25:23.272Z,1.00
2023-02-06T09:27:51.350Z,1.00
2023-02-06T09:30:19.651Z,1.00
2023-02-06T09:32:49.403Z,1.00
2023-02-06T09:35:17.794Z,1.00
2023-02-06T09:37:45.802Z,1.00
2023-02-06T09:40:17.366Z,1.00
2023-02-06T09:42:47.213Z,99.90
2023-02-06T09:45:19.087Z,99.90
2023-02-06T09:47:51.741Z,99.90
2023-02-06T09:50:26.439Z,1.00
2023-02-06T09:53:08.473Z,1.00
2023-02-06T09:55:41.532Z,99.90
2023-02-06T09:58:20.563Z,99.90
2023-02-06T10:00:54.111Z,99.90
2023-02-06T10:03:37.868Z,1.00
2023-02-06T10:06:15.914Z,99.90
2023-02-06T10:08:49.660Z,99.90
2023-02-06T10:11:26.871Z,99.90
2023-02-06T10:13:58.787Z,99.90
2023-02-06T10:16:35.719Z,99.90
2023-02-06T10:19:11.315Z,99.90
2023-02-06T10:21:42.416Z,99.90
2023-02-06T10:24:22.346Z,99.90
2023-02-06T10:26:53.013Z,99.90
2023-02-06T10:29:27.199Z,99.90
2023-02-06T10:32:05.349Z,99.90
2023-02-06T10:34:51.707Z,99.90
2023-02-06T10:37:35.576Z,99.90
2023-02-06T10:40:20.415Z,99.90
2023-02-06T10:42:54.969Z,99.90
2023-02-06T10:45:37.535Z,99.90
2023-02-06T10:48:14.476Z,99.90
2023-02-06T10:50:47.705Z,99.90
2023-02-06T10:53:20.687Z,99.90
2023-02-06T10:55:55.426Z,99.90
2023-02-06T10:58:27.876Z,99.90
2023-02-06T11:00:57.114Z,99.90
2023-02-06T11:03:30.441Z,99.90
2023-02-06T11:06:00.550Z,99.90
2023-02-06T11:08:31.270Z,99.90
2023-02-06T11:10:59.809Z,99.90
2023-02-06T11:13:29.629Z,99.90
2023-02-06T11:16:02.764Z,99.90
2023-02-06T11:18:35.747Z,99.90
2023-02-06T11:21:05.945Z,99.90
2023-02-06T11:23:35.086Z,99.90
2023-02-06T11:26:10.551Z,99.90
2023-02-06T11:28:42.638Z,99.90
2023-02-06T11:31:13.047Z,99.90
2023-02-06T11:33:49.152Z,99.90
2023-02-06T11:36:28.552Z,99.90
2023-02-06T11:38:58.954Z,99.90
2023-02-06T11:41:27.826Z,99.90
2023-02-06T11:44:02.528Z,99.90
2023-02-06T11:46:35.061Z,99.90
2023-02-06T11:49:06.424Z,99.90
2023-02-06T11:51:52.366Z,99.90
2023-02-06T11:54:23.503Z,99.90
2023-02-06T11:57:07.960Z,99.90
2023-02-06T11:59:37.901Z,99.90
2023-02-06T12:02:26.484Z,99.90
2023-02-06T12:05:02.537Z,99.90
2023-02-06T12:07:35.624Z,99.90
2023-02-06T12:10:06.633Z,99.90
2023-02-06T12:12:38.793Z,99.90
2023-02-06T12:15:36.107Z,99.90
2023-02-06T12:18:04.843Z,99.90
2023-02-06T12:20:35.467Z,99.90
2023-02-06T12:23:16.616Z,99.90
2023-02-06T12:25:50.136Z,99.90
2023-02-06T12:28:21.948Z,99.90
2023-02-06T12:30:56.719Z,99.90
2023-02-06T12:33:34.008Z,99.90
2023-02-06T12:36:07.556Z,99.90
2023-02-06T12:38:44.344Z,99.90
2023-02-06T12:41:43.573Z,99.90
2023-02-06T12:44:21.209Z,99.90
2023-02-06T12:46:55.771Z,99.90
2023-02-06T12:49:27.962Z,99.90
2023-02-06T12:52:02.879Z,99.90
2023-02-06T12:54:37.250Z,99.90
2023-02-06T12:57:10.375Z,99.90
2023-02-06T12:59:59.678Z,99.90
2023-02-06T13:02:52.954Z,99.90
2023-02-06T13:05:26.077Z,99.90
2023-02-06T13:07:56.576Z,99.90
2023-02-06T13:10:27.561Z,99.90
2023-02-06T13:12:57.119Z,99.90
2023-02-06T13:15:27.943Z,99.90
2023-02-06T13:17:57.007Z,99.90
2023-02-06T13:20:27.493Z,99.90
2023-02-06T13:23:17.066Z,99.90
2023-02-06T13:25:49.902Z,99.90
2023-02-06T13:28:59.426Z,99.90
2023-02-06T13:31:30.808Z,99.90
2023-02-06T13:34:06.946Z,99.90
2023-02-06T13:36:49.983Z,99.90
2023-02-06T13:39:33.346Z,99.90
2023-02-06T13:42:36.077Z,99.90
2023-02-06T13:45:07.876Z,99.90
2023-02-06T13:48:14.002Z,99.90
2023-02-06T13:51:08.810Z,99.90
2023-02-06T13:54:07.101Z,99.90
2023-02-06T13:56:51.688Z,99.90
2023-02-06T13:59:25.674Z,99.90
2023-02-06T14:01:54.543Z,99.90
2023-02-06T14:04:26.072Z,99.90
2023-02-06T14:07:11.907Z,99.90
2023-02-06T14:09:59.602Z,99.90
2023-02-06T14:12:44.367Z,99.90
2023-02-06T14:15:29.789Z,99.90
2023-02-06T14:18:16.670Z,99.90
2023-02-06T14:20:53.379Z,99.90
2023-02-06T14:23:34.462Z,99.90
2023-02-06T14:26:19.690Z,99.90
2023-02-06T14:28:57.156Z,99.90
2023-02-06T14:31:46.052Z,99.90
2023-02-06T14:34:38.882Z,99.90
2023-02-06T14:37:22.139Z,99.90
2023-02-06T14:39:52.936Z,99.90
2023-02-06T14:42:25.331Z,99.90
2023-02-06T14:44:57.348Z,99.90
2023-02-06T14:47:30.623Z,99.90
2023-02-06T14:50:01.050Z,99.90
2023-02-06T14:52:33.175Z,99.90
2023-02-06T14:55:01.571Z,99.90
2023-02-06T14:57:32.501Z,99.90
2023-02-06T15:00:04.277Z,99.90
2023-02-06T15:02:36.009Z,99.90
2023-02-06T15:05:05.966Z,99.90
2023-02-06T15:07:37.104Z,99.90
2023-02-06T15:10:09.872Z,99.90
2023-02-06T15:12:38.189Z,99.90
2023-02-06T15:15:18.443Z,99.90
2023-02-06T15:18:00.078Z,99.90
2023-02-06T15:20:31.898Z,99.90
2023-02-06T15:23:16.979Z,99.90
2023-02-06T15:26:03.651Z,99.90
2023-02-06T15:28:33.314Z,99.90
2023-02-06T15:31:02.753Z,99.90
2023-02-06T15:33:34.283Z,99.90
2023-02-06T15:36:04.080Z,99.90
2023-02-06T15:38:34.081Z,99.90
2023-02-06T15:41:05.386Z,99.90
2023-02-06T15:43:34.357Z,99.90
2023-02-06T15:46:05.626Z,99.90
2023-02-06T15:48:38.293Z,99.90
2023-02-06T15:51:20.545Z,99.90
2023-02-06T15:53:50.727Z,99.90
2023-02-06T15:56:24.031Z,99.90
2023-02-06T15:58:59.289Z,99.90
2023-02-06T16:01:30.467Z,99.90
2023-02-06T16:04:03.865Z,99.90
2023-02-06T16:06:32.350Z,99.90
2023-02-06T16:09:06.451Z,99.90
2023-02-06T16:11:52.200Z,99.90
2023-02-06T16:14:24.342Z,99.90
2023-02-06T16:17:01.155Z,99.90
2023-02-06T16:19:47.359Z,99.90
2023-02-06T16:22:23.964Z,99.90
2023-02-06T16:24:55.035Z,99.90
2023-02-06T16:27:26.107Z,99.90
2023-02-06T16:29:58.209Z,99.90
2023-02-06T16:32:30.333Z,99.90
2023-02-06T16:35:01.287Z,99.90
2023-02-06T16:37:31.762Z,99.90
2023-02-06T16:39:59.914Z,99.90
2023-02-06T16:42:35.247Z,99.90
2023-02-06T16:45:09.497Z,99.90
2023-02-06T16:47:37.861Z,99.90
2023-02-06T16:50:10.239Z,99.90
2023-02-06T16:52:41.054Z,99.90
2023-02-06T16:55:16.807Z,99.90
2023-02-06T16:57:45.915Z,99.90
2023-02-06T17:00:19.370Z,99.90
2023-02-06T17:02:47.815Z,99.90
2023-02-06T17:05:17.899Z,99.90
2023-02-06T17:07:46.028Z,99.90
2023-02-06T17:10:15.121Z,99.90
2023-02-06T17:12:45.059Z,99.90
2023-02-06T17:15:13.786Z,99.90
2023-02-06T17:17:42.239Z,99.90
2023-02-06T17:20:25.609Z,99.90
2023-02-06T17:22:53.761Z,99.90
2023-02-06T17:25:22.213Z,99.90
2023-02-06T17:27:51.145Z,99.90
2023-02-06T17:30:21.893Z,99.90
2023-02-06T17:32:50.239Z,99.90
2023-02-06T17:35:20.257Z,99.90
2023-02-06T17:37:51.570Z,99.90
2023-02-06T17:40:22.823Z,99.90
2023-02-06T17:42:51.441Z,99.90
2023-02-06T17:45:19.736Z,99.90
2023-02-06T17:47:48.067Z,99.90
2023-02-06T17:50:19.626Z,99.90
2023-02-06T17:52:49.225Z,99.90
2023-02-06T17:55:17.814Z,99.90
2023-02-06T17:57:46.135Z,99.90
2023-02-06T18:00:20.007Z,99.90
2023-02-06T18:02:48.411Z,99.90
2023-02-06T18:05:16.656Z,99.90
2023-02-06T18:07:45.258Z,1.00
2023-02-06T18:10:14.805Z,1.00
2023-02-06T18:12:42.976Z,99.90
2023-02-06T18:15:13.636Z,99.90
2023-02-06T18:17:46.405Z,99.90
2023-02-06T18:20:14.964Z,99.90
2023-02-06T18:22:43.352Z,99.90
2023-02-06T18:25:14.617Z,99.90
2023-02-06T18:27:45.889Z,99.90
2023-02-06T18:30:15.680Z,99.90
2023-02-06T18:32:44.070Z,99.90
2023-02-06T18:35:14.830Z,99.90
2023-02-06T18:37:43.248Z,99.90
2023-02-06T18:40:12.371Z,99.90
2023-02-06T18:42:54.706Z,99.90
2023-02-06T18:45:26.219Z,99.90
2023-02-06T18:47:55.579Z,99.90
2023-02-06T18:50:23.982Z,99.90
2023-02-06T18:52:52.364Z,99.90
2023-02-06T18:55:21.284Z,99.90
2023-02-06T18:57:51.350Z,99.90
2023-02-06T19:00:22.282Z,99.90
2023-02-06T19:02:50.468Z,99.90
2023-02-06T19:05:18.754Z,99.90
2023-02-06T19:07:50.498Z,99.90
2023-02-06T19:10:20.093Z,99.90
2023-02-06T19:12:50.181Z,99.90
2023-02-06T19:15:18.405Z,99.90
2023-02-06T19:17:46.537Z,99.90
2023-02-06T19:20:15.090Z,99.90
2023-02-06T19:22:43.253Z,99.90
2023-02-06T19:25:14.441Z,99.90
2023-02-06T19:27:43.592Z,99.90
2023-02-06T19:30:14.130Z,99.90
2023-02-06T19:32:43.372Z,99.90
2023-02-06T19:35:12.073Z,99.90
2023-02-06T19:37:40.473Z,99.90
2023-02-06T19:40:09.098Z,99.90
2023-02-06T19:42:37.182Z,99.90
2023-02-06T19:45:06.920Z,99.90
2023-02-06T19:47:37.149Z,99.90
2023-02-06T19:50:06.200Z,99.90
2023-02-06T19:52:35.195Z,99.90
2023-02-06T19:55:03.635Z,99.90
2023-02-06T19:57:31.749Z,99.90
2023-02-06T19:59:59.834Z,99.90
2023-02-06T20:02:28.128Z,99.90
2023-02-06T20:04:57.637Z,1.00
2023-02-06T20:07:25.722Z,99.90
2023-02-06T20:09:55.928Z,99.90
2023-02-06T20:12:24.073Z,99.90
2023-02-06T20:14:52.292Z,99.90
2023-02-06T20:17:20.434Z,1.00
2023-02-06T20:19:48.731Z,1.00
2023-02-06T20:22:18.127Z,1.00
2023-02-06T20:24:46.326Z,1.00
2023-02-06T20:27:15.204Z,1.00
2023-02-06T20:29:45.721Z,1.00
2023-02-06T20:32:15.558Z,99.90
2023-02-06T20:34:43.704Z,99.90
2023-02-06T20:37:12.627Z,99.90
2023-02-06T20:39:42.202Z,1.00
2023-02-06T20:42:10.356Z,1.00
2023-02-06T20:44:38.516Z,1.00
2023-02-06T20:47:06.649Z,1.00
2023-02-06T20:49:34.772Z,1.00
2023-02-06T20:52:03.814Z,1.00
2023-02-06T20:54:31.968Z,1.00
2023-02-06T20:57:01.448Z,1.00
2023-02-06T20:59:29.656Z,1.00
2023-02-06T21:01:58.065Z,1.00
2023-02-06T21:04:26.152Z,1.00
2023-02-06T21:06:55.124Z,1.00
2023-02-06T21:09:23.343Z,1.00
2023-02-06T21:11:51.420Z,1.00
2023-02-06T21:14:21.775Z,1.00
2023-02-06T21:16:50.394Z,99.90
2023-02-06T21:19:20.708Z,99.90
2023-02-06T21:21:49.394Z,1.00
2023-02-06T21:24:18.560Z,1.00
2023-02-06T21:26:46.963Z,99.90
2023-02-06T21:29:16.654Z,99.90
2023-02-06T21:31:46.718Z,1.00
2023-02-06T21:34:21.185Z,1.00
2023-02-06T21:36:49.999Z,1.00
2023-02-06T21:39:21.942Z,1.00
2023-02-06T21:41:53.592Z,1.00
2023-02-06T21:44:23.708Z,1.00
2023-02-06T21:46:55.857Z,1.00
2023-02-06T21:49:24.389Z,1.00
2023-02-06T21:51:53.182Z,1.00
2023-02-06T21:54:21.965Z,1.00
2023-02-06T21:56:50.103Z,1.00
2023-02-06T21:59:18.392Z,1.00
2023-02-06T22:01:46.545Z,1.00
2023-02-06T22:04:16.125Z,1.00
2023-02-06T22:06:44.227Z,1.00
2023-02-06T22:09:16.574Z,1.00
2023-02-06T22:11:44.993Z,1.00
2023-02-06T22:14:14.788Z,1.00
2023-02-06T22:16:43.153Z,1.00
2023-02-06T22:19:11.778Z,1.00
2023-02-06T22:21:41.799Z,1.00
2023-02-06T22:24:11.993Z,1.00
2023-02-06T22:26:41.485Z,1.00
2023-02-06T22:29:12.881Z,1.00
2023-02-06T22:31:43.080Z,1.00
2023-02-06T22:34:14.743Z,1.00
2023-02-06T22:36:45.041Z,1.00
2023-02-06T22:39:14.461Z,1.00
2023-02-06T22:41:44.762Z,1.00
2023-02-06T22:44:16.418Z,1.00
2023-02-06T22:46:47.042Z,1.00
2023-02-06T22:49:15.612Z,1.00
2023-02-06T22:51:49.489Z,1.00
2023-02-06T22:54:17.620Z,1.00
2023-02-06T22:56:46.204Z,1.00
2023-02-06T22:59:17.266Z,1.00
2023-02-06T23:01:47.439Z,1.00
2023-02-06T23:04:17.535Z,1.00
2023-02-06T23:06:46.793Z,1.00
2023-02-06T23:09:18.661Z,1.00
2023-02-06T23:11:47.381Z,1.00
2023-02-06T23:14:16.693Z,1.00
2023-02-06T23:16:45.695Z,1.00
2023-02-06T23:19:15.267Z,1.00
2023-02-06T23:21:45.189Z,1.00
2023-02-06T23:24:14.329Z,1.00
2023-02-06T23:26:44.943Z,1.00
2023-02-06T23:29:17.232Z,1.00
2023-02-06T23:31:46.162Z,1.00
2023-02-06T23:34:15.548Z,1.00
2023-02-06T23:36:44.124Z,1.00
2023-02-06T23:39:12.544Z,1.00
2023-02-06T23:41:41.403Z,1.00
2023-02-06T23:44:12.100Z,1.00
2023-02-06T23:46:41.262Z,1.00
2023-02-06T23:49:10.262Z,1.00
2023-02-06T23:51:39.062Z,1.00
2023-02-06T23:54:08.390Z,1.00
2023-02-06T23:56:37.097Z,1.00
2023-02-06T23:59:06.905Z,1.00
